Time;durP1;ratioP1;P1;durP2;ratioP2;P2;SDS_P1;SDS_P2;PMS_P1;PMS_P2;Temp;Humidity;BMP_temperature;BMP_pressure;BME280_temperature;BME280_humidity;BME280_pressure;Samples;Min_cycle;Max_cycle;Signal;HPM_P1;HPM_P2
2021/07/23 00:02:13;;;;;;;13.13;4.93;;;;;;;26.13;40.26;101705.03;4995085;28;20027;-60
2021/07/23 00:04:39;;;;;;;9.70;4.32;;;;;;;26.20;40.35;101725.16;4994822;28;20026;-59
2021/07/23 00:07:04;;;;;;;9.32;4.47;;;;;;;26.17;40.90;101730.22;4993505;28;20030;-59
2021/07/23 00:09:29;;;;;;;9.20;5.03;;;;;;;26.14;40.44;101727.88;4994362;28;20463;-59
2021/07/23 00:11:55;;;;;;;10.00;4.50;;;;;;;26.09;40.61;101724.88;4993957;28;20494;-59
2021/07/23 00:14:20;;;;;;;12.20;4.85;;;;;;;26.02;40.72;101728.47;5025443;28;20480;-59
2021/07/23 00:16:45;;;;;;;9.70;4.57;;;;;;;26.01;40.43;101717.69;4993785;28;20511;-59
2021/07/23 00:19:11;;;;;;;12.68;4.78;;;;;;;25.99;40.57;101717.91;4994860;28;20057;-59
2021/07/23 00:21:36;;;;;;;9.75;4.47;;;;;;;25.94;40.51;101709.44;4992567;28;20505;-60
2021/07/23 00:24:02;;;;;;;7.95;4.72;;;;;;;25.92;40.80;101717.06;4994170;28;20464;-59
2021/07/23 00:26:27;;;;;;;9.35;4.53;;;;;;;25.90;40.99;101721.91;4994035;28;20072;-59
2021/07/23 00:28:52;;;;;;;10.52;4.85;;;;;;;25.85;40.58;101727.16;4994064;28;20097;-59
2021/07/23 00:31:18;;;;;;;11.27;4.38;;;;;;;25.82;40.96;101726.75;4993803;28;20471;-59
2021/07/23 00:33:43;;;;;;;6.97;4.60;;;;;;;25.74;40.53;101716.78;4994383;28;20526;-59
2021/07/23 00:36:08;;;;;;;7.13;5.32;;;;;;;25.70;40.75;101720.16;4994024;28;20031;-59
2021/07/23 00:38:34;;;;;;;9.40;4.80;;;;;;;25.69;40.82;101708.31;4992831;28;20027;-58
2021/07/23 00:40:59;;;;;;;10.10;4.78;;;;;;;25.66;40.58;101707.88;4993877;28;20092;-59
2021/07/23 00:43:25;;;;;;;14.57;4.55;;;;;;;25.61;41.22;101716.75;4994037;28;20049;-59
2021/07/23 00:45:51;;;;;;;9.23;4.72;;;;;;;25.57;40.72;101710.00;4994754;28;20157;-59
2021/07/23 00:48:16;;;;;;;6.85;3.78;;;;;;;25.53;41.47;101707.84;4996471;28;20056;-59
2021/07/23 00:50:42;;;;;;;9.15;5.10;;;;;;;25.45;41.03;101706.09;4997557;28;20475;-59
2021/07/23 00:53:08;;;;;;;11.02;4.78;;;;;;;25.42;40.93;101707.38;4997603;28;20375;-59
2021/07/23 00:55:34;;;;;;;6.60;4.53;;;;;;;25.38;41.33;101707.97;5028951;28;20018;-60
2021/07/23 00:58:00;;;;;;;11.50;5.13;;;;;;;25.31;41.29;101696.13;4995882;28;20037;-59
2021/07/23 01:00:26;;;;;;;9.50;5.15;;;;;;;25.29;41.50;101709.22;4997706;28;20407;-59
2021/07/23 01:02:52;;;;;;;8.65;4.75;;;;;;;25.19;41.60;101697.75;4997690;28;20037;-59
2021/07/23 01:05:18;;;;;;;7.35;4.78;;;;;;;25.18;41.29;101705.13;4997305;28;20029;-59
2021/07/23 01:07:44;;;;;;;9.75;4.45;;;;;;;25.15;41.45;101704.72;4996941;28;20105;-59
2021/07/23 01:10:10;;;;;;;8.50;4.53;;;;;;;25.09;41.19;101705.50;4997305;28;20022;-59
2021/07/23 01:12:36;;;;;;;8.30;4.57;;;;;;;25.06;42.11;101698.53;4997252;28;20038;-59
2021/07/23 01:15:01;;;;;;;8.23;4.57;;;;;;;25.00;41.53;101695.75;4995606;28;20495;-59
2021/07/23 01:17:27;;;;;;;10.13;4.38;;;;;;;25.02;41.37;101704.59;4997080;28;20450;-59
2021/07/23 01:19:59;;;;;;;7.95;4.03;;;;;;;24.99;41.46;101699.53;4995636;28;20537;-59
2021/07/23 01:22:27;;;;;;;8.13;5.07;;;;;;;24.95;41.49;101698.25;5028562;28;20506;-58
2021/07/23 01:24:53;;;;;;;10.98;5.13;;;;;;;24.89;42.28;101698.03;4996938;28;20449;-59
2021/07/23 01:27:18;;;;;;;11.30;5.15;;;;;;;24.86;41.50;101690.19;5028493;28;20065;-59
2021/07/23 01:29:44;;;;;;;10.68;5.28;;;;;;;24.86;41.49;101697.56;4996663;28;20534;-59
2021/07/23 01:32:09;;;;;;;9.65;4.70;;;;;;;24.78;42.31;101693.06;4996791;28;20426;-59
2021/07/23 01:34:34;;;;;;;7.60;4.30;;;;;;;24.75;41.60;101698.09;4997088;28;20022;-59
2021/07/23 01:37:00;;;;;;;8.40;4.47;;;;;;;24.70;41.84;101687.75;4997458;28;20033;-59
2021/07/23 01:39:26;;;;;;;9.10;3.70;;;;;;;24.61;41.71;101685.34;4996351;28;20387;-59
2021/07/23 01:41:51;;;;;;;8.13;3.85;;;;;;;24.54;42.56;101684.47;5028101;28;20034;-59
2021/07/23 01:44:17;;;;;;;9.55;4.50;;;;;;;24.51;41.64;101684.88;4996569;28;20091;-59
2021/07/23 01:46:42;;;;;;;7.05;4.70;;;;;;;24.44;41.59;101686.69;4996210;28;20026;-59
2021/07/23 01:49:07;;;;;;;12.95;4.22;;;;;;;24.34;42.01;101684.31;4996513;28;20098;-59
2021/07/23 01:51:33;;;;;;;7.93;3.95;;;;;;;24.31;41.79;101691.03;4996420;28;20034;-58
2021/07/23 01:53:58;;;;;;;7.00;4.07;;;;;;;24.27;42.69;101691.59;4996077;28;20036;-62
2021/07/23 01:56:24;;;;;;;8.93;4.25;;;;;;;24.19;42.29;101678.06;4996004;28;20030;-61
2021/07/23 01:58:50;;;;;;;9.43;4.38;;;;;;;24.18;42.91;101688.16;4995346;28;20022;-61
2021/07/23 02:01:15;;;;;;;9.68;4.43;;;;;;;24.10;42.17;101681.97;4994719;28;20057;-62
2021/07/23 02:03:40;;;;;;;8.02;4.72;;;;;;;24.08;42.03;101678.56;4996144;28;20030;-61
2021/07/23 02:06:06;;;;;;;10.18;5.03;;;;;;;24.02;42.42;101684.81;4996100;28;20053;-61
2021/07/23 02:08:31;;;;;;;7.60;4.45;;;;;;;23.94;42.26;101680.31;4996059;28;20077;-62
2021/07/23 02:10:56;;;;;;;7.43;4.70;;;;;;;23.90;42.43;101691.88;4996328;28;20038;-62
2021/07/23 02:13:22;;;;;;;14.45;4.60;;;;;;;23.84;43.21;101687.19;4996255;28;20018;-62
2021/07/23 02:15:47;;;;;;;8.00;5.10;;;;;;;23.76;43.38;101686.25;4995447;28;20042;-61
2021/07/23 02:18:12;;;;;;;10.88;4.57;;;;;;;23.72;42.98;101682.22;4994463;28;20080;-62
2021/07/23 02:20:38;;;;;;;7.25;4.13;;;;;;;23.67;43.55;101681.94;4996145;28;20022;-62
2021/07/23 02:23:04;;;;;;;6.65;4.13;;;;;;;23.62;42.72;101678.06;4995568;28;20018;-62
2021/07/23 02:25:32;;;;;;;8.98;4.63;;;;;;;23.57;43.82;101681.41;4995855;28;20023;-62
2021/07/23 02:27:57;;;;;;;9.40;4.72;;;;;;;23.53;43.90;101685.59;4996010;28;20060;-62
2021/07/23 02:30:22;;;;;;;7.40;4.57;;;;;;;23.49;43.48;101678.78;4995791;28;20363;-61
2021/07/23 02:32:48;;;;;;;10.50;4.72;;;;;;;23.45;43.56;101685.66;4995940;28;20481;-61
2021/07/23 02:35:13;;;;;;;12.75;4.40;;;;;;;23.39;43.98;101672.78;4995587;28;20022;-61
2021/07/23 02:37:39;;;;;;;9.05;3.85;;;;;;;23.36;43.87;101675.03;4995535;28;20042;-61
2021/07/23 02:40:05;;;;;;;5.65;3.78;;;;;;;23.31;43.05;101675.56;4995645;28;20029;-61
2021/07/23 02:42:30;;;;;;;10.40;4.22;;;;;;;23.24;43.04;101662.88;4995987;28;20038;-61
2021/07/23 02:44:56;;;;;;;8.15;4.05;;;;;;;23.20;43.53;101673.34;4995458;28;20117;-61
2021/07/23 02:47:21;;;;;;;7.40;4.28;;;;;;;23.16;44.00;101674.78;4995719;28;20077;-61
2021/07/23 02:49:46;;;;;;;10.05;4.78;;;;;;;23.14;43.36;101676.84;4995312;28;20088;-61
2021/07/23 02:52:12;;;;;;;10.63;4.30;;;;;;;23.11;43.08;101674.50;4995251;28;20022;-61
2021/07/23 02:54:37;;;;;;;9.68;3.88;;;;;;;23.06;43.84;101666.03;4994907;28;20089;-61
2021/07/23 02:57:03;;;;;;;8.30;4.30;;;;;;;23.05;43.83;101676.09;4995477;28;20049;-61
2021/07/23 02:59:28;;;;;;;10.27;3.88;;;;;;;23.02;43.16;101670.16;4994761;28;20113;-61
2021/07/23 03:01:53;;;;;;;6.22;3.53;;;;;;;23.00;43.28;101670.34;4995364;28;20057;-61
2021/07/23 03:04:19;;;;;;;7.78;4.10;;;;;;;22.95;43.41;101663.75;4994838;28;20022;-61
2021/07/23 03:06:44;;;;;;;9.40;3.92;;;;;;;22.91;44.23;101663.28;4995081;28;20036;-62
2021/07/23 03:09:09;;;;;;;7.25;4.13;;;;;;;22.86;43.75;101665.75;4993411;28;20113;-61
2021/07/23 03:11:35;;;;;;;7.72;4.13;;;;;;;22.82;44.11;101669.03;4993453;28;20049;-61
2021/07/23 03:14:00;;;;;;;6.22;3.95;;;;;;;22.79;44.38;101666.66;4994701;28;20033;-61
2021/07/23 03:16:25;;;;;;;8.65;4.40;;;;;;;22.76;43.82;101664.31;4994579;28;20042;-61
2021/07/23 03:18:51;;;;;;;8.43;3.75;;;;;;;22.71;43.58;101653.97;4994723;28;20383;-62
2021/07/23 03:21:21;;;;;;;8.27;3.70;;;;;;;22.70;43.91;101662.38;4994531;28;20395;-61
2021/07/23 03:23:46;;;;;;;7.90;3.53;;;;;;;22.68;43.84;101658.94;4995336;28;20041;-61
2021/07/23 03:26:12;;;;;;;9.60;4.07;;;;;;;22.65;43.81;101651.13;4995287;28;20475;-61
2021/07/23 03:28:37;;;;;;;7.65;3.83;;;;;;;22.59;44.28;101653.53;4993311;28;20018;-61
2021/07/23 03:31:02;;;;;;;10.32;5.60;;;;;;;22.58;43.82;101646.38;4995111;28;20026;-61
2021/07/23 03:33:28;;;;;;;8.27;3.83;;;;;;;22.58;43.71;101651.00;4994541;28;20034;-61
2021/07/23 03:35:53;;;;;;;7.75;4.13;;;;;;;22.56;44.65;101651.19;4994287;28;20038;-61
2021/07/23 03:38:19;;;;;;;6.32;3.63;;;;;;;22.52;43.87;101647.16;4994534;28;20546;-61
2021/07/23 03:40:44;;;;;;;5.85;3.25;;;;;;;22.51;44.46;101653.63;4994591;28;20042;-61
2021/07/23 03:43:09;;;;;;;5.97;3.50;;;;;;;22.46;44.03;101636.97;4994502;28;20502;-61
2021/07/23 03:45:35;;;;;;;8.50;3.80;;;;;;;22.47;44.95;101644.09;4994486;28;20534;-61
2021/07/23 03:48:00;;;;;;;6.10;3.83;;;;;;;22.45;44.79;101646.19;4994216;28;20061;-61
2021/07/23 03:50:25;;;;;;;6.93;2.78;;;;;;;22.41;43.86;101646.75;4994541;28;20062;-62
2021/07/23 03:52:51;;;;;;;4.72;2.90;;;;;;;22.40;44.98;101647.78;4994326;28;20084;-61
2021/07/23 03:55:16;;;;;;;9.07;3.50;;;;;;;22.35;45.12;101642.88;4994481;28;20030;-61
2021/07/23 03:57:41;;;;;;;8.68;4.35;;;;;;;22.34;44.58;101648.50;4994399;28;20031;-62
2021/07/23 04:00:10;;;;;;;5.88;4.05;;;;;;;22.30;44.80;101648.06;5026159;28;20030;-61
2021/07/23 04:02:36;;;;;;;8.50;4.57;;;;;;;22.29;45.06;101645.50;4994177;28;20076;-61
2021/07/23 04:05:02;;;;;;;6.47;3.80;;;;;;;22.28;44.95;101644.66;4994372;28;20022;-61
2021/07/23 04:07:31;;;;;;;8.68;3.63;;;;;;;22.26;44.07;101641.25;4994074;28;20022;-62
2021/07/23 04:09:57;;;;;;;7.35;3.95;;;;;;;22.24;44.71;101642.47;4994427;28;20034;-60
2021/07/23 04:12:23;;;;;;;8.40;4.30;;;;;;;22.24;44.69;101645.22;4993950;28;20030;-61
2021/07/23 04:14:48;;;;;;;8.40;4.10;;;;;;;22.22;45.22;101636.38;4994201;28;20022;-61
2021/07/23 04:17:14;;;;;;;7.60;4.13;;;;;;;22.22;45.43;101634.47;4993964;28;20464;-61
2021/07/23 04:19:39;;;;;;;9.15;4.65;;;;;;;22.24;44.42;101637.03;4994510;28;20030;-61
2021/07/23 04:22:04;;;;;;;11.50;4.47;;;;;;;22.20;44.68;101633.81;4997912;28;20048;-61
2021/07/23 04:24:30;;;;;;;7.47;4.13;;;;;;;22.25;45.62;101638.72;4998068;28;20030;-61
2021/07/23 04:26:59;;;;;;;12.95;4.65;;;;;;;22.24;44.30;101632.41;4997864;28;20077;-61
2021/07/23 04:29:24;;;;;;;8.40;4.72;;;;;;;22.26;44.72;101637.69;4997817;28;20479;-61
2021/07/23 04:31:50;;;;;;;9.80;5.13;;;;;;;22.25;44.77;101628.63;4997981;28;20028;-61
2021/07/23 04:34:15;;;;;;;8.48;4.72;;;;;;;22.32;44.43;101634.22;4997921;28;20467;-61
2021/07/23 04:36:40;;;;;;;8.73;4.88;;;;;;;22.32;45.10;101635.06;4997579;28;20098;-62
2021/07/23 04:39:06;;;;;;;9.80;5.10;;;;;;;22.40;44.47;101631.41;4997718;28;20025;-61
2021/07/23 04:41:31;;;;;;;10.40;5.80;;;;;;;22.44;45.39;101641.78;4997802;28;20597;-61
2021/07/23 04:43:57;;;;;;;12.88;5.43;;;;;;;22.51;45.35;101639.13;4997592;28;20394;-61
2021/07/23 04:46:22;;;;;;;10.00;5.35;;;;;;;22.56;44.79;101637.53;4997653;28;20105;-61
2021/07/23 04:48:47;;;;;;;10.25;5.70;;;;;;;22.67;44.62;101638.16;4997677;28;20563;-61
2021/07/23 04:51:13;;;;;;;12.93;7.05;;;;;;;22.76;45.62;101639.72;4997542;28;20463;-61
2021/07/23 04:53:38;;;;;;;11.88;6.32;;;;;;;22.87;45.09;101644.72;4997569;28;20436;-60
2021/07/23 04:56:05;;;;;;;8.90;6.03;;;;;;;22.96;45.15;101638.13;4997176;28;20026;-61
2021/07/23 04:58:31;;;;;;;12.73;7.30;;;;;;;23.07;45.59;101641.22;4997331;28;20352;-61
2021/07/23 05:00:56;;;;;;;12.68;7.07;;;;;;;23.20;45.00;101635.91;4997376;28;20025;-61
2021/07/23 05:03:31;;;;;;;12.80;6.40;;;;;;;23.35;45.63;101648.69;4997340;28;20093;-61
2021/07/23 05:05:57;;;;;;;12.63;6.93;;;;;;;23.47;44.73;101637.13;5028725;28;20147;-61
2021/07/23 05:08:23;;;;;;;11.68;6.38;;;;;;;23.59;45.38;101638.28;5028652;28;20061;-61
2021/07/23 05:10:48;;;;;;;10.57;6.47;;;;;;;23.71;44.92;101634.00;4997315;28;20167;-61
2021/07/23 05:13:13;;;;;;;9.82;6.28;;;;;;;23.84;45.33;101637.91;4996832;28;20439;-61
2021/07/23 05:15:40;;;;;;;10.90;6.63;;;;;;;23.95;44.93;101632.75;4995370;28;20121;-61
2021/07/23 05:18:05;;;;;;;12.20;6.18;;;;;;;24.04;44.22;101625.22;4996715;28;20038;-61
2021/07/23 05:20:31;;;;;;;10.60;5.35;;;;;;;24.15;44.96;101625.56;4997080;28;20106;-61
2021/07/23 05:22:56;;;;;;;10.38;5.47;;;;;;;24.29;44.70;101634.72;4996761;28;20087;-62
2021/07/23 05:25:22;;;;;;;11.73;6.00;;;;;;;24.41;43.97;101629.56;4996813;28;20486;-61
2021/07/23 05:27:47;;;;;;;8.20;5.32;;;;;;;24.54;44.24;101627.75;4995710;28;20026;-59
2021/07/23 05:30:12;;;;;;;8.50;5.45;;;;;;;24.65;44.05;101627.19;4996630;28;20137;-59
2021/07/23 05:32:38;;;;;;;12.50;5.70;;;;;;;24.71;43.81;101618.16;4995311;28;20022;-59
2021/07/23 05:35:03;;;;;;;9.60;5.57;;;;;;;24.88;44.43;101625.03;4996151;28;20033;-59
2021/07/23 05:37:32;;;;;;;9.80;5.32;;;;;;;25.00;44.30;101636.28;4996387;28;20081;-59
2021/07/23 05:39:57;;;;;;;11.73;5.68;;;;;;;25.12;43.70;101628.31;4995856;28;20027;-59
2021/07/23 05:42:23;;;;;;;8.63;4.75;;;;;;;25.24;43.16;101633.00;4996824;28;20037;-59
2021/07/23 05:44:48;;;;;;;9.75;5.63;;;;;;;25.37;43.62;101627.56;4996421;28;20109;-60
2021/07/23 05:47:14;;;;;;;7.40;4.90;;;;;;;25.52;43.26;101624.66;4996514;28;20018;-59
2021/07/23 05:49:39;;;;;;;11.25;5.07;;;;;;;25.68;43.27;101624.31;4995363;28;20097;-60
2021/07/23 05:52:06;;;;;;;6.93;4.20;;;;;;;25.84;42.82;101626.63;4996114;28;20054;-59
2021/07/23 05:54:31;;;;;;;12.15;5.15;;;;;;;25.97;42.97;101623.91;4996304;28;20022;-59
2021/07/23 05:56:57;;;;;;;9.98;4.60;;;;;;;26.19;42.62;101620.97;4996357;28;20088;-59
2021/07/23 05:59:22;;;;;;;10.38;4.85;;;;;;;26.34;42.57;101625.19;4996389;28;20029;-60
2021/07/23 06:01:47;;;;;;;8.65;4.78;;;;;;;26.53;42.34;101621.56;4996456;28;20026;-60
2021/07/23 06:04:13;;;;;;;10.27;5.10;;;;;;;26.69;41.55;101623.00;4996165;28;20097;-60
2021/07/23 06:06:38;;;;;;;10.20;4.97;;;;;;;26.88;41.99;101616.66;4996133;28;20030;-59
2021/07/23 06:09:03;;;;;;;22.38;4.95;;;;;;;27.06;41.37;101616.78;4996188;28;20033;-59
2021/07/23 06:11:29;;;;;;;8.48;5.65;;;;;;;27.16;41.65;101617.13;4994826;28;20038;-59
2021/07/23 06:13:54;;;;;;;7.22;4.93;;;;;;;27.29;41.54;101615.41;4996079;28;20459;-59
2021/07/23 06:16:19;;;;;;;8.48;4.95;;;;;;;27.41;41.65;101616.44;4995820;28;20054;-59
2021/07/23 06:18:45;;;;;;;9.20;4.68;;;;;;;27.54;41.32;101622.69;4996068;28;20110;-59
2021/07/23 06:21:10;;;;;;;8.43;5.13;;;;;;;27.66;41.18;101614.59;4995755;28;20065;-59
2021/07/23 06:23:36;;;;;;;9.10;4.55;;;;;;;27.80;41.14;101613.44;4995862;28;20463;-60
2021/07/23 06:26:05;;;;;;;8.13;5.05;;;;;;;27.92;40.16;101611.63;4994960;28;20038;-59
2021/07/23 06:28:31;;;;;;;8.07;5.22;;;;;;;28.05;40.72;101613.47;4994831;28;20023;-60
2021/07/23 06:31:03;;;;;;;9.73;5.43;;;;;;;28.18;40.24;101614.19;4994217;28;20053;-59
2021/07/23 06:33:29;;;;;;;9.27;4.45;;;;;;;28.33;39.93;101613.00;4995845;28;20034;-59
2021/07/23 06:35:54;;;;;;;11.13;4.53;;;;;;;28.41;39.23;101612.72;4995312;28;20030;-60
2021/07/23 06:38:20;;;;;;;7.85;4.90;;;;;;;28.55;39.36;101614.25;4995224;28;20026;-59
2021/07/23 06:40:45;;;;;;;7.03;4.97;;;;;;;28.63;39.02;101611.22;4995479;28;20038;-60
2021/07/23 06:43:10;;;;;;;8.27;4.82;;;;;;;28.72;39.77;101607.97;4977692;28;20121;-59
2021/07/23 06:45:36;;;;;;;8.15;5.70;;;;;;;28.87;38.53;101616.69;4995362;28;20435;-60
2021/07/23 06:48:01;;;;;;;14.98;4.80;;;;;;;29.02;39.08;101620.97;4995416;28;20125;-59
2021/07/23 06:50:27;;;;;;;10.70;5.53;;;;;;;29.15;38.83;101616.09;4995555;28;20034;-59
2021/07/23 06:52:52;;;;;;;8.10;4.82;;;;;;;29.27;38.95;101621.72;4995007;28;20022;-59
2021/07/23 06:55:17;;;;;;;9.80;4.45;;;;;;;29.39;39.06;101620.72;4995158;28;20038;-59
2021/07/23 06:57:43;;;;;;;8.48;4.35;;;;;;;29.56;38.26;101617.28;4995028;28;20034;-60
2021/07/23 07:00:10;;;;;;;8.70;4.75;;;;;;;29.71;38.33;101614.91;4995224;28;20448;-60
2021/07/23 07:02:35;;;;;;;9.05;5.15;;;;;;;29.84;37.81;101614.75;4995411;28;20029;-59
2021/07/23 07:05:02;;;;;;;9.15;4.78;;;;;;;29.96;37.76;101616.47;4995334;28;20109;-59
2021/07/23 07:07:27;;;;;;;8.13;5.22;;;;;;;30.13;37.97;101621.28;4995155;28;20500;-59
2021/07/23 07:09:52;;;;;;;8.35;4.20;;;;;;;30.30;37.37;101625.88;4994687;28;20101;-60
2021/07/23 07:12:18;;;;;;;11.23;5.25;;;;;;;30.44;37.10;101623.75;4994670;28;20037;-59
2021/07/23 07:14:43;;;;;;;6.72;4.18;;;;;;;30.60;37.09;101630.47;4995964;28;20475;-60
2021/07/23 07:17:09;;;;;;;6.70;4.93;;;;;;;30.75;36.63;101630.81;4995032;28;20476;-59
2021/07/23 07:19:34;;;;;;;9.75;4.75;;;;;;;30.82;36.77;101626.00;4994622;28;20073;-59
2021/07/23 07:21:59;;;;;;;9.93;4.60;;;;;;;30.95;36.67;101623.84;4993948;28;20022;-59
2021/07/23 07:24:25;;;;;;;9.43;5.32;;;;;;;31.09;36.35;101618.88;4994980;28;20105;-60
2021/07/23 07:26:50;;;;;;;8.75;5.50;;;;;;;31.20;36.40;101623.53;4994597;28;20030;-60
2021/07/23 07:29:16;;;;;;;8.27;4.85;;;;;;;31.31;36.12;101617.09;4994657;28;20030;-60
2021/07/23 07:31:42;;;;;;;7.43;4.82;;;;;;;31.45;35.91;101617.63;4994562;28;20390;-59
2021/07/23 07:34:08;;;;;;;13.95;5.43;;;;;;;31.61;35.50;101628.78;4994314;28;20026;-59
2021/07/23 07:36:34;;;;;;;7.85;4.82;;;;;;;31.72;35.41;101624.28;4994535;28;20030;-61
2021/07/23 07:38:59;;;;;;;11.38;4.78;;;;;;;31.85;35.37;101623.13;4993255;28;20061;-60
2021/07/23 07:41:26;;;;;;;10.32;5.13;;;;;;;31.99;35.26;101617.00;4994485;28;20060;-60
2021/07/23 07:43:51;;;;;;;6.70;4.93;;;;;;;32.11;35.47;101619.72;4993973;28;20030;-59
2021/07/23 07:46:17;;;;;;;8.43;4.78;;;;;;;32.25;34.69;101619.13;4994326;28;20427;-61
2021/07/23 07:48:42;;;;;;;8.30;4.97;;;;;;;32.39;34.77;101619.63;4992871;28;20076;-60
2021/07/23 07:51:08;;;;;;;10.30;4.90;;;;;;;32.46;34.73;101617.50;4993994;28;20045;-62
2021/07/23 07:53:35;;;;;;;13.75;4.93;;;;;;;32.59;34.07;101625.50;4994461;28;20487;-61
2021/07/23 07:56:00;;;;;;;9.52;4.10;;;;;;;32.67;34.15;101616.72;4993362;28;20033;-61
2021/07/23 07:58:26;;;;;;;11.60;4.43;;;;;;;32.81;33.86;101618.03;4993910;28;20023;-60
2021/07/23 08:00:51;;;;;;;8.05;4.88;;;;;;;33.01;34.02;101631.34;4994180;28;20035;-60
2021/07/23 08:03:16;;;;;;;7.10;5.22;;;;;;;33.19;34.03;101621.91;4994216;28;20053;-60
2021/07/23 08:05:42;;;;;;;8.25;4.65;;;;;;;33.38;33.57;101623.22;4994043;28;20026;-60
2021/07/23 08:08:09;;;;;;;8.85;4.90;;;;;;;33.56;33.47;101613.69;4994448;28;20030;-60
2021/07/23 08:10:36;;;;;;;7.95;4.60;;;;;;;33.67;32.37;101610.75;4994224;28;20109;-61
2021/07/23 08:13:04;;;;;;;7.25;4.15;;;;;;;33.81;33.42;101600.88;4993927;28;20022;-60
2021/07/23 08:15:30;;;;;;;6.65;4.80;;;;;;;33.95;33.25;101602.13;4993872;28;20074;-60
2021/07/23 08:17:57;;;;;;;6.55;4.22;;;;;;;34.09;32.67;101601.72;4992954;28;20422;-60
2021/07/23 08:20:22;;;;;;;6.40;4.15;;;;;;;34.20;32.19;101586.78;4994000;28;20077;-60
2021/07/23 08:22:48;;;;;;;8.10;4.63;;;;;;;34.35;32.83;101589.66;4994000;28;20030;-60
2021/07/23 08:25:13;;;;;;;6.55;4.25;;;;;;;34.47;32.33;101590.31;4993719;28;20491;-60
2021/07/23 08:27:39;;;;;;;7.50;5.03;;;;;;;34.53;31.84;101578.09;4992474;28;20379;-60
2021/07/23 08:30:05;;;;;;;9.55;4.03;;;;;;;34.68;32.20;101589.34;4993800;28;20026;-60
2021/07/23 08:32:37;;;;;;;6.47;4.47;;;;;;;34.74;31.60;101577.13;4992392;28;20022;-60
2021/07/23 08:35:06;;;;;;;10.63;4.72;;;;;;;34.80;31.46;101575.19;4994228;28;20077;-60
2021/07/23 08:37:33;;;;;;;6.75;4.18;;;;;;;34.88;31.89;101560.75;4993908;28;20519;-60
2021/07/23 08:39:58;;;;;;;5.95;4.38;;;;;;;34.97;31.05;101571.09;4993934;28;20506;-60
2021/07/23 08:42:28;;;;;;;9.15;4.78;;;;;;;35.04;31.79;101560.50;4994382;28;20034;-60
2021/07/23 08:44:55;;;;;;;6.90;4.45;;;;;;;35.08;30.60;101556.13;4993903;28;20030;-60
2021/07/23 08:47:22;;;;;;;10.40;5.32;;;;;;;35.14;31.25;101553.34;4993887;28;20029;-59
2021/07/23 08:49:48;;;;;;;9.63;5.00;;;;;;;35.23;30.61;101554.47;4993928;28;20104;-60
2021/07/23 08:52:13;;;;;;;7.13;4.60;;;;;;;35.34;31.02;101553.38;4994503;28;20026;-60
2021/07/23 08:54:38;;;;;;;8.55;4.63;;;;;;;35.44;29.93;101547.81;4993779;28;20037;-59
2021/07/23 08:57:07;;;;;;;11.32;4.75;;;;;;;35.48;30.21;101548.94;4993438;28;20026;-60
2021/07/23 08:59:33;;;;;;;7.40;4.20;;;;;;;35.59;30.72;101551.50;4993707;28;20022;-60
2021/07/23 09:02:04;;;;;;;7.32;4.65;;;;;;;35.63;29.98;101557.34;4993504;28;20028;-60
2021/07/23 09:04:37;;;;;;;7.30;5.03;;;;;;;35.63;30.05;101555.41;4993736;28;20022;-59
2021/07/23 09:07:12;;;;;;;7.95;4.72;;;;;;;35.75;30.20;101555.13;4995047;28;20371;-60
2021/07/23 09:09:37;;;;;;;10.98;5.13;;;;;;;35.80;30.41;101545.91;4997152;28;20491;-59
2021/07/23 09:12:02;;;;;;;9.73;4.20;;;;;;;35.78;29.86;101542.56;4997135;28;20022;-60
2021/07/23 09:14:28;;;;;;;7.43;5.03;;;;;;;35.76;30.61;101534.50;4996721;28;20018;-59
2021/07/23 09:16:54;;;;;;;6.30;4.07;;;;;;;35.88;30.27;101548.97;4995203;28;20046;-60
2021/07/23 09:19:20;;;;;;;6.38;4.05;;;;;;;36.02;30.18;101538.94;4996913;28;20034;-59
2021/07/23 09:21:46;;;;;;;5.80;4.00;;;;;;;36.15;30.08;101541.19;4996653;28;20030;-60
2021/07/23 09:24:12;;;;;;;7.72;4.18;;;;;;;36.22;29.78;101538.94;5028709;28;20026;-60
2021/07/23 09:26:41;;;;;;;9.45;4.72;;;;;;;36.34;29.20;101547.00;4996584;28;20034;-60
2021/07/23 09:29:07;;;;;;;7.40;4.25;;;;;;;36.48;29.93;101542.50;4996830;28;20049;-60
2021/07/23 09:31:33;;;;;;;7.82;4.97;;;;;;;36.67;29.50;101542.72;4995198;28;20037;-60
2021/07/23 09:33:59;;;;;;;8.45;4.15;;;;;;;36.85;29.22;101538.47;4996413;28;20022;-60
2021/07/23 09:36:24;;;;;;;7.10;5.00;;;;;;;36.98;28.93;101540.66;4996427;28;20029;-60
2021/07/23 09:38:50;;;;;;;11.25;4.60;;;;;;;37.10;28.85;101533.63;4996539;28;20037;-60
2021/07/23 09:41:21;;;;;;;6.03;3.92;;;;;;;37.15;28.61;101530.78;4996792;28;20499;-60
2021/07/23 09:43:50;;;;;;;7.90;4.32;;;;;;;37.23;28.55;101521.78;4996608;28;20034;-60
2021/07/23 09:46:15;;;;;;;7.00;4.30;;;;;;;37.42;29.03;101537.84;4996485;28;20431;-60
2021/07/23 09:48:41;;;;;;;7.88;4.03;;;;;;;37.55;28.08;101534.44;4996193;28;20019;-60
2021/07/23 09:51:07;;;;;;;8.65;4.93;;;;;;;37.60;28.56;101526.00;4996345;28;20038;-60
2021/07/23 09:53:34;;;;;;;6.32;5.18;;;;;;;37.72;28.52;101515.25;4994881;28;20454;-59
2021/07/23 09:56:04;;;;;;;8.98;4.80;;;;;;;37.78;27.68;101512.13;4995982;28;20026;-60
2021/07/23 09:58:30;;;;;;;11.00;4.53;;;;;;;37.87;28.23;101516.00;4996168;28;20033;-60
2021/07/23 10:00:56;;;;;;;6.35;4.05;;;;;;;37.98;27.91;101507.50;4996206;28;20410;-60
2021/07/23 10:03:24;;;;;;;8.10;4.10;;;;;;;38.13;27.38;101513.78;4996178;28;20033;-60
2021/07/23 10:06:09;;;;;;;7.32;4.22;;;;;;;38.47;27.95;101498.88;4996149;28;20018;-60
2021/07/23 10:08:47;;;;;;;8.40;7.10;;;;;;;38.96;26.77;101496.53;4994960;28;20021;-60
2021/07/23 10:11:13;;;;;;;12.18;10.98;;;;;;;39.55;26.28;101499.56;4994589;28;20033;-61
2021/07/23 10:13:39;;;;;;;7.90;5.72;;;;;;;40.19;25.69;101485.78;4995689;28;20034;-60
2021/07/23 10:16:08;;;;;;;5.75;4.55;;;;;;;41.20;25.15;101476.84;4994646;28;20043;-61
2021/07/23 10:18:38;;;;;;;6.85;4.05;;;;;;;42.15;24.54;101480.31;4995257;28;20384;-60
2021/07/23 10:21:03;;;;;;;7.53;4.07;;;;;;;42.07;24.20;101479.09;4994397;28;20105;-60
2021/07/23 10:23:29;;;;;;;9.45;4.70;;;;;;;41.45;24.57;101483.84;4996262;28;20105;-60
2021/07/23 10:25:55;;;;;;;7.70;4.82;;;;;;;41.16;24.90;101475.81;4994778;28;20046;-61
2021/07/23 10:28:36;;;;;;;6.72;4.35;;;;;;;40.86;25.27;101475.66;4996013;28;20460;-61
2021/07/23 10:31:01;;;;;;;6.65;4.00;;;;;;;40.74;25.41;101475.38;4995368;28;20062;-61
2021/07/23 10:33:52;;;;;;;7.97;4.90;;;;;;;40.77;24.88;101463.50;4995844;28;20060;-60
2021/07/23 10:36:26;;;;;;;7.03;3.88;;;;;;;40.85;24.98;101463.56;4995258;28;20061;-61
2021/07/23 10:39:07;;;;;;;9.65;4.35;;;;;;;40.93;24.49;101448.00;4995432;28;20351;-61
2021/07/23 10:41:34;;;;;;;7.53;4.40;;;;;;;41.06;24.82;101441.47;4995501;28;20026;-60
2021/07/23 10:43:59;;;;;;;7.93;4.00;;;;;;;41.20;25.11;101447.88;4994265;28;20040;-60
2021/07/23 10:46:43;;;;;;;5.82;4.25;;;;;;;41.31;24.25;101449.28;4994166;28;20515;-60
2021/07/23 10:49:10;;;;;;;6.70;4.15;;;;;;;41.39;24.87;101440.09;4995442;28;20032;-61
2021/07/23 10:51:46;;;;;;;12.25;4.32;;;;;;;41.59;24.15;101431.13;4977630;28;20471;-61
2021/07/23 10:54:12;;;;;;;5.90;5.40;;;;;;;41.74;24.05;101435.56;4994802;28;20029;-61
2021/07/23 10:57:01;;;;;;;5.78;4.63;;;;;;;41.87;24.23;101425.31;4995167;28;20035;-60
2021/07/23 10:59:42;;;;;;;6.50;3.95;;;;;;;42.02;23.92;101431.34;4994952;28;20475;-60
2021/07/23 11:02:28;;;;;;;4.22;3.58;;;;;;;42.15;23.67;101429.63;4995318;28;20022;-60
2021/07/23 11:05:04;;;;;;;9.50;4.28;;;;;;;42.24;23.46;101427.66;4993468;28;20026;-61
2021/07/23 11:07:29;;;;;;;4.55;3.92;;;;;;;42.34;23.35;101421.72;4995268;28;20026;-61
2021/07/23 11:09:55;;;;;;;7.95;5.38;;;;;;;42.41;23.40;101422.03;4994717;28;20026;-60
2021/07/23 11:12:30;;;;;;;7.65;3.78;;;;;;;42.50;23.16;101417.25;4995282;28;20049;-61
2021/07/23 11:15:00;;;;;;;7.20;3.83;;;;;;;42.60;23.33;101408.53;4993750;28;20026;-60
2021/07/23 11:17:30;;;;;;;5.88;4.00;;;;;;;42.65;23.31;101402.72;4993480;28;20057;-60
2021/07/23 11:19:58;;;;;;;5.85;4.07;;;;;;;42.80;22.89;101407.84;4995283;28;20117;-61
2021/07/23 11:22:29;;;;;;;6.68;3.50;;;;;;;42.95;22.67;101400.09;4994686;28;20030;-60